Weather at Ozark Regional Airport

Public forecast

Using degrees Fahrenheit for public forecast. Weather courtesy of forecast.io.

Current aviation weather report (METAR) for Ozark Regional Airport

Retrieved 2021/01/16 22:25 UTC (0 seconds ago):

KBPK 162225Z AUTO 28007KT 250V310 SCT027 OVC035 03/M03 A2994 RMK AO2 T00281033

Aviation forecast (TAF) for Ozark Regional Airport

Retrieved 2021/01/16 18:22 UTC (4 hours ago):

TAF KBPK 161720Z 1618/1718 29009G16KT P6SM BKN025 FM162100 29009G16KT P6SM SCT035 SCT250 FM170000 27005KT P6SM BKN250